createdAt,value
2022-09-02T00:01:17.788Z,76.11
2022-09-02T00:03:44.152Z,76.41
2022-09-02T00:06:10.544Z,76.37
2022-09-02T00:08:36.970Z,76.25
2022-09-02T00:11:03.352Z,76.10
2022-09-02T00:13:29.736Z,76.01
2022-09-02T00:15:56.136Z,76.31
2022-09-02T00:18:22.615Z,76.25
2022-09-02T00:20:48.978Z,76.50
2022-09-02T00:23:15.374Z,76.38
2022-09-02T00:25:41.743Z,76.57
2022-09-02T00:28:08.101Z,76.30
2022-09-02T00:30:34.469Z,76.75
2022-09-02T00:33:00.907Z,77.03
2022-09-02T00:35:27.273Z,77.42
2022-09-02T00:37:53.668Z,77.60
2022-09-02T00:40:20.081Z,77.86
2022-09-02T00:42:46.433Z,77.82
2022-09-02T00:45:12.835Z,77.81
2022-09-02T00:47:39.189Z,77.57
2022-09-02T00:50:05.557Z,77.84
2022-09-02T00:52:32.062Z,78.24
2022-09-02T00:54:58.428Z,78.22
2022-09-02T00:57:24.878Z,78.44
2022-09-02T00:59:51.241Z,78.44
2022-09-02T01:02:17.703Z,78.54
2022-09-02T01:04:44.022Z,78.27
2022-09-02T01:07:10.417Z,78.58
2022-09-02T01:09:36.889Z,78.70
2022-09-02T01:12:03.271Z,78.43
2022-09-02T01:14:29.656Z,78.14
2022-09-02T01:16:56.015Z,78.13
2022-09-02T01:19:22.415Z,78.33
2022-09-02T01:21:48.770Z,78.57
2022-09-02T01:24:15.167Z,79.06
2022-09-02T01:26:41.536Z,79.30
2022-09-02T01:29:07.939Z,79.42
2022-09-02T01:31:34.367Z,79.76
2022-09-02T01:34:00.677Z,79.73
2022-09-02T01:36:27.066Z,79.09
2022-09-02T01:38:53.573Z,78.15
2022-09-02T01:41:19.928Z,77.12
2022-09-02T01:43:46.292Z,76.22
2022-09-02T01:46:12.806Z,75.53
2022-09-02T01:48:39.156Z,75.11
2022-09-02T01:51:05.519Z,74.99
2022-09-02T01:53:31.906Z,75.05
2022-09-02T01:55:58.272Z,75.18
2022-09-02T01:58:24.722Z,75.15
2022-09-02T02:00:51.111Z,75.06
2022-09-02T02:03:17.514Z,74.94
2022-09-02T02:05:43.860Z,74.83
2022-09-02T02:08:10.227Z,74.67
2022-09-02T02:10:36.618Z,74.48
2022-09-02T02:13:03.027Z,74.45
2022-09-02T02:17:54.762Z,74.11
2022-09-02T02:20:21.139Z,74.17
2022-09-02T02:22:47.498Z,74.17
2022-09-02T02:25:13.881Z,74.05
2022-09-02T02:27:40.288Z,74.01
2022-09-02T02:30:06.685Z,73.68
2022-09-02T02:32:33.157Z,73.37
2022-09-02T02:34:59.588Z,73.11
2022-09-02T02:37:25.979Z,72.96
2022-09-02T02:39:52.343Z,73.19
2022-09-02T02:42:18.708Z,73.49
2022-09-02T02:44:45.072Z,73.77
2022-09-02T02:47:11.441Z,74.10
2022-09-02T02:49:37.822Z,74.36
2022-09-02T02:52:04.179Z,74.46
2022-09-02T02:54:35.141Z,74.50
2022-09-02T02:56:56.979Z,74.58
2022-09-02T02:59:23.408Z,74.77
2022-09-02T03:01:49.936Z,74.83
2022-09-02T03:04:16.274Z,74.84
2022-09-02T03:06:42.708Z,74.75
2022-09-02T03:09:09.064Z,74.84
2022-09-02T03:11:35.468Z,74.69
2022-09-02T03:14:01.836Z,74.58
2022-09-02T03:16:28.229Z,74.69
2022-09-02T03:18:54.659Z,75.10
2022-09-02T03:21:21.099Z,75.42
2022-09-02T03:23:47.502Z,75.35
2022-09-02T03:26:13.855Z,75.60
2022-09-02T03:28:40.221Z,75.64
2022-09-02T03:31:06.701Z,75.49
2022-09-02T03:33:33.054Z,75.47
2022-09-02T03:35:59.445Z,75.51
2022-09-02T03:38:25.834Z,75.73
2022-09-02T03:40:52.235Z,75.66
2022-09-02T03:43:18.582Z,75.53
2022-09-02T03:45:44.984Z,75.60
2022-09-02T03:48:11.301Z,75.84
2022-09-02T03:50:37.696Z,76.05
2022-09-02T03:53:04.083Z,76.52
2022-09-02T03:55:30.459Z,76.54
2022-09-02T03:57:56.847Z,76.68
2022-09-02T04:00:23.210Z,76.69
2022-09-02T04:02:50.188Z,76.87
2022-09-02T04:05:16.100Z,77.34
2022-09-02T04:07:42.348Z,77.39
2022-09-02T04:10:08.837Z,77.45
2022-09-02T04:12:35.265Z,77.87
2022-09-02T04:15:01.631Z,78.33
2022-09-02T04:17:28.030Z,78.86
2022-09-02T04:19:54.468Z,79.09
2022-09-02T04:22:20.830Z,79.29
2022-09-02T04:24:47.216Z,79.46
2022-09-02T04:27:13.665Z,79.42
2022-09-02T04:29:40.018Z,79.43
2022-09-02T04:32:06.403Z,79.40
2022-09-02T04:34:32.765Z,79.55
2022-09-02T04:36:59.187Z,79.53
2022-09-02T04:39:25.625Z,79.60
2022-09-02T04:41:51.990Z,79.72
2022-09-02T04:44:18.365Z,79.80
2022-09-02T04:46:44.789Z,80.88
2022-09-02T04:49:11.096Z,80.83
2022-09-02T04:51:37.460Z,80.24
2022-09-02T04:54:03.837Z,79.20
2022-09-02T04:56:30.251Z,78.75
2022-09-02T04:58:56.625Z,78.46
2022-09-02T05:01:23.057Z,78.09
2022-09-02T05:03:49.396Z,77.71
2022-09-02T05:06:15.967Z,77.32
2022-09-02T05:08:42.303Z,77.34
2022-09-02T05:11:08.691Z,77.77
2022-09-02T05:13:35.068Z,78.01
2022-09-02T05:16:01.495Z,78.06
2022-09-02T05:18:27.820Z,78.10
2022-09-02T05:20:54.194Z,78.25
2022-09-02T05:23:20.607Z,78.70
2022-09-02T05:25:47.034Z,78.87
2022-09-02T05:28:13.416Z,79.04
2022-09-02T05:30:39.810Z,79.24
2022-09-02T05:33:06.139Z,79.00
2022-09-02T05:35:32.515Z,79.22
2022-09-02T05:38:01.136Z,79.45
2022-09-02T05:40:25.297Z,79.45
2022-09-02T05:42:51.648Z,79.60
2022-09-02T05:45:18.039Z,79.31
2022-09-02T05:47:44.412Z,79.52
2022-09-02T05:50:10.856Z,79.54
2022-09-02T05:52:37.286Z,79.52
2022-09-02T05:55:03.652Z,79.58
2022-09-02T05:57:30.010Z,79.57
2022-09-02T05:59:56.405Z,79.76
2022-09-02T06:02:22.897Z,80.02
2022-09-02T06:04:49.251Z,80.39
2022-09-02T06:07:15.807Z,80.68
2022-09-02T06:09:42.191Z,80.86
2022-09-02T06:12:08.550Z,80.83
2022-09-02T06:14:34.952Z,80.72
2022-09-02T06:17:01.314Z,80.78
2022-09-02T06:19:27.672Z,80.76
2022-09-02T06:21:54.052Z,80.54
2022-09-02T06:24:20.441Z,80.50
2022-09-02T06:26:48.422Z,80.38
2022-09-02T06:29:13.380Z,80.43
2022-09-02T06:31:39.801Z,80.41
2022-09-02T06:34:06.153Z,80.28
2022-09-02T06:36:32.517Z,80.00
2022-09-02T06:38:58.922Z,80.13
2022-09-02T06:41:25.280Z,80.20
2022-09-02T06:43:51.635Z,80.38
2022-09-02T06:46:18.076Z,80.12
2022-09-02T06:48:44.395Z,80.37
2022-09-02T06:51:10.769Z,80.34
2022-09-02T06:53:37.191Z,80.54
2022-09-02T06:56:03.568Z,80.38
2022-09-02T06:58:30.066Z,80.51
2022-09-02T07:00:56.438Z,80.64
2022-09-02T07:03:22.924Z,80.68
2022-09-02T07:05:49.225Z,80.68
2022-09-02T07:08:15.681Z,80.62
2022-09-02T07:10:42.051Z,80.70
2022-09-02T07:13:08.415Z,80.61
2022-09-02T07:15:34.774Z,80.53
2022-09-02T07:18:01.142Z,80.46
2022-09-02T07:20:27.542Z,80.49
2022-09-02T07:22:53.986Z,80.40
2022-09-02T07:25:20.675Z,80.49
2022-09-02T07:27:47.044Z,80.62
2022-09-02T07:30:13.480Z,80.59
2022-09-02T07:32:39.918Z,80.50
2022-09-02T07:35:06.333Z,80.35
2022-09-02T07:37:32.701Z,80.53
2022-09-02T07:39:59.069Z,80.73
2022-09-02T07:42:25.507Z,80.36
2022-09-02T07:44:51.825Z,79.86
2022-09-02T07:47:18.202Z,79.71
2022-09-02T07:52:10.948Z,79.50
2022-09-02T07:54:37.313Z,78.97
2022-09-02T07:57:03.729Z,78.40
2022-09-02T07:59:30.179Z,77.84
2022-09-02T08:01:56.581Z,77.72
2022-09-02T08:04:22.961Z,77.63
2022-09-02T08:06:49.527Z,77.67
2022-09-02T08:09:16.104Z,77.42
2022-09-02T08:11:42.510Z,77.39
2022-09-02T08:14:08.881Z,76.86
2022-09-02T08:16:35.312Z,76.75
2022-09-02T08:19:01.738Z,76.72
2022-09-02T08:21:28.168Z,76.97
2022-09-02T08:23:54.540Z,76.92
2022-09-02T08:26:20.923Z,76.43
2022-09-02T08:28:47.298Z,75.97
2022-09-02T08:31:13.708Z,75.76
2022-09-02T08:33:40.067Z,75.50
2022-09-02T08:36:06.432Z,75.36
2022-09-02T08:38:32.858Z,75.43
2022-09-02T08:40:59.327Z,75.43
2022-09-02T08:43:25.704Z,75.48
2022-09-02T08:45:52.177Z,75.38
2022-09-02T08:48:18.456Z,75.31
2022-09-02T08:50:44.820Z,75.29
2022-09-02T08:53:11.236Z,75.18
2022-09-02T08:55:37.609Z,74.85
2022-09-02T08:58:03.986Z,74.84
2022-09-02T09:00:30.380Z,74.75
2022-09-02T09:02:56.744Z,74.41
2022-09-02T09:05:23.099Z,74.48
2022-09-02T09:07:49.575Z,75.28
2022-09-02T09:10:16.010Z,75.39
2022-09-02T09:12:42.381Z,75.04
2022-09-02T09:15:08.771Z,74.88
2022-09-02T09:17:35.212Z,74.49
2022-09-02T09:20:01.620Z,74.21
2022-09-02T09:22:27.965Z,73.94
2022-09-02T09:24:54.405Z,73.64
2022-09-02T09:27:20.837Z,73.34
2022-09-02T09:29:47.200Z,72.40
2022-09-02T09:32:13.578Z,72.14
2022-09-02T09:34:39.972Z,71.09
2022-09-02T09:37:06.381Z,72.01
2022-09-02T09:39:32.741Z,72.02
2022-09-02T09:41:59.117Z,71.14
2022-09-02T09:44:25.499Z,70.97
2022-09-02T09:46:51.865Z,71.86
2022-09-02T09:49:18.324Z,71.28
2022-09-02T09:51:49.656Z,69.79
2022-09-02T09:54:11.143Z,69.70
2022-09-02T09:56:37.795Z,69.41
2022-09-02T09:59:04.047Z,69.34
2022-09-02T10:01:30.457Z,68.57
2022-09-02T10:03:56.742Z,68.68
2022-09-02T10:06:23.141Z,68.63
2022-09-02T10:08:49.512Z,68.51
2022-09-02T10:11:15.906Z,67.86
2022-09-02T10:13:42.308Z,67.68
2022-09-02T10:16:08.708Z,68.40
2022-09-02T10:18:35.050Z,68.49
2022-09-02T10:21:14.903Z,68.32
2022-09-02T10:23:27.975Z,67.56
2022-09-02T10:25:54.334Z,66.77
2022-09-02T10:28:20.763Z,66.50
2022-09-02T10:30:47.338Z,66.06
2022-09-02T10:33:13.722Z,66.06
2022-09-02T10:35:40.101Z,66.80
2022-09-02T10:38:06.470Z,66.56
2022-09-02T10:40:32.899Z,65.69
2022-09-02T10:42:59.250Z,65.69
2022-09-02T10:45:25.632Z,65.73
2022-09-02T10:50:18.365Z,64.24
2022-09-02T10:52:44.771Z,63.95
2022-09-02T10:55:11.158Z,63.77
2022-09-02T10:57:37.628Z,63.81
2022-09-02T11:00:03.990Z,63.55
2022-09-02T11:02:30.354Z,62.52
2022-09-02T11:04:56.743Z,62.48
2022-09-02T11:07:23.120Z,62.03
2022-09-02T11:09:49.489Z,62.14
2022-09-02T11:12:15.886Z,61.58
2022-09-02T11:14:42.351Z,61.01
2022-09-02T11:17:13.228Z,61.13
2022-09-02T11:19:35.156Z,59.63
2022-09-02T11:22:01.511Z,59.35
2022-09-02T11:24:27.874Z,56.97
2022-09-02T11:26:54.255Z,56.08
2022-09-02T11:29:20.609Z,56.15
2022-09-02T11:31:47.111Z,55.91
2022-09-02T11:34:13.509Z,55.83
2022-09-02T11:36:39.876Z,54.43
2022-09-02T11:39:06.369Z,53.79
2022-09-02T11:41:35.824Z,53.73
2022-09-02T11:43:59.165Z,53.99
2022-09-02T11:46:25.569Z,54.28
2022-09-02T11:48:51.897Z,53.38
2022-09-02T11:51:18.322Z,52.96
2022-09-02T11:53:44.762Z,52.59
2022-09-02T11:56:11.133Z,51.43
2022-09-02T11:58:37.638Z,52.01
2022-09-02T12:01:04.036Z,52.40
2022-09-02T12:04:06.749Z,51.99
2022-09-02T12:05:56.953Z,51.18
2022-09-02T12:08:23.194Z,51.62
2022-09-02T12:10:49.596Z,51.74
2022-09-02T12:13:15.965Z,51.88
2022-09-02T12:15:42.379Z,51.63
2022-09-02T12:18:08.793Z,52.13
2022-09-02T12:20:35.160Z,52.11
2022-09-02T12:23:01.517Z,52.07
2022-09-02T12:25:27.904Z,51.69
2022-09-02T12:27:54.283Z,52.10
2022-09-02T12:30:22.938Z,52.57
2022-09-02T12:32:49.255Z,52.48
2022-09-02T12:35:15.644Z,52.79
2022-09-02T12:37:42.030Z,52.52
2022-09-02T12:40:12.978Z,52.91
2022-09-02T12:42:34.809Z,52.64
2022-09-02T12:45:01.182Z,52.99
2022-09-02T12:47:27.608Z,52.73
2022-09-02T12:49:53.973Z,52.96
2022-09-02T12:52:20.385Z,53.01
2022-09-02T12:54:46.742Z,52.50
2022-09-02T12:57:13.108Z,52.46
2022-09-02T12:59:39.503Z,52.72
2022-09-02T13:02:05.885Z,51.98
2022-09-02T13:04:32.271Z,52.03
2022-09-02T13:06:58.676Z,51.89
2022-09-02T13:09:25.120Z,52.55
2022-09-02T13:11:51.545Z,52.45
2022-09-02T13:14:17.922Z,53.28
2022-09-02T13:16:44.284Z,53.62
2022-09-02T13:19:10.748Z,54.13
2022-09-02T13:21:37.130Z,54.60
2022-09-02T13:24:03.519Z,54.87
2022-09-02T13:26:48.260Z,54.98
2022-09-02T13:28:56.276Z,55.11
2022-09-02T13:31:22.712Z,54.80
2022-09-02T13:33:49.143Z,55.01
2022-09-02T13:36:15.579Z,55.05
2022-09-02T13:38:41.956Z,55.33
2022-09-02T13:41:09.372Z,55.31
2022-09-02T13:43:34.734Z,54.90
2022-09-02T13:46:01.172Z,54.93
2022-09-02T13:48:27.540Z,54.77
2022-09-02T13:50:53.934Z,54.92
2022-09-02T13:53:58.986Z,55.79
2022-09-02T13:55:46.814Z,57.27
2022-09-02T13:58:13.179Z,58.33
2022-09-02T14:00:39.605Z,59.11
2022-09-02T14:03:06.083Z,60.99
2022-09-02T14:05:32.395Z,63.09
2022-09-02T14:07:58.798Z,64.75
2022-09-02T14:10:25.191Z,65.42
2022-09-02T14:12:51.555Z,65.11
2022-09-02T19:13:30.654Z,76.27
2022-09-02T19:16:00.739Z,75.90
2022-09-02T19:18:23.463Z,75.99
2022-09-02T19:20:49.876Z,76.33
2022-09-02T19:23:16.235Z,76.30
2022-09-02T19:25:42.763Z,76.16
2022-09-02T19:28:09.116Z,76.16
2022-09-02T19:30:35.509Z,76.33
2022-09-02T19:33:01.869Z,76.37
2022-09-02T19:35:28.242Z,76.43
2022-09-02T19:37:54.696Z,76.44
2022-09-02T19:40:21.135Z,76.54
2022-09-02T19:42:47.556Z,76.34
2022-09-02T19:45:16.456Z,76.23
2022-09-02T19:50:06.770Z,76.37
2022-09-02T19:52:33.155Z,76.49
2022-09-02T19:54:59.525Z,76.56
2022-09-02T19:57:25.924Z,76.53
2022-09-02T19:59:52.395Z,76.53
2022-09-02T20:02:18.817Z,76.47
2022-09-02T20:04:45.170Z,76.48
2022-09-02T20:07:11.533Z,76.66
2022-09-02T20:09:37.928Z,76.81
